Time;durP1;ratioP1;P1;durP2;ratioP2;P2;SDS_P1;SDS_P2;PMS_P1;PMS_P2;Temp;Humidity;BMP_temperature;BMP_pressure;BME280_temperature;BME280_humidity;BME280_pressure;Samples;Min_cycle;Max_cycle;Signal;HPM_P1;HPM_P2
2023/08/22 00:00:13;;;;;;;3.17;1.30;;;18.40;56.50;;;;;;5054570;28;20029;-77
2023/08/22 00:02:40;;;;;;;2.72;1.35;;;18.50;56.30;;;;;;5054483;28;20021;-81
2023/08/22 00:05:08;;;;;;;5.85;1.45;;;18.70;56.20;;;;;;5054442;28;20044;-77
2023/08/22 00:07:35;;;;;;;3.05;1.40;;;18.90;55.70;;;;;;5054716;28;20032;-80
2023/08/22 00:10:03;;;;;;;6.00;1.60;;;19.10;54.50;;;;;;5054372;28;20075;-78
2023/08/22 00:12:31;;;;;;;1.52;1.20;;;19.20;53.90;;;;;;5054169;28;20455;-76
2023/08/22 00:14:58;;;;;;;2.40;1.10;;;19.10;53.40;;;;;;5054372;28;20028;-76
2023/08/22 00:17:26;;;;;;;1.88;1.25;;;19.00;54.10;;;;;;5054426;28;20489;-75
2023/08/22 00:19:53;;;;;;;1.42;1.10;;;19.00;54.70;;;;;;5053927;28;20045;-75
2023/08/22 00:22:20;;;;;;;3.33;1.23;;;19.10;54.40;;;;;;5052302;28;20033;-76
2023/08/22 00:24:48;;;;;;;1.75;1.10;;;19.10;55.10;;;;;;5051854;28;20017;-77
2023/08/22 00:27:16;;;;;;;2.15;1.20;;;19.20;54.70;;;;;;5051705;28;20079;-75
2023/08/22 00:29:43;;;;;;;5.10;1.38;;;19.40;54.60;;;;;;5051814;28;20074;-78
2023/08/22 00:32:10;;;;;;;2.58;1.35;;;19.70;53.50;;;;;;5051946;28;20372;-76
2023/08/22 00:34:38;;;;;;;4.28;1.45;;;20.00;53.30;;;;;;5051807;28;20021;-77
2023/08/22 00:37:06;;;;;;;2.13;1.40;;;20.20;52.50;;;;;;5051950;28;20467;-76
2023/08/22 00:39:33;;;;;;;3.53;1.60;;;20.40;52.10;;;;;;5051758;28;20125;-77
2023/08/22 00:42:01;;;;;;;3.03;1.10;;;20.70;51.80;;;;;;5051646;28;20028;-75
2023/08/22 00:44:28;;;;;;;2.90;1.20;;;20.80;51.10;;;;;;5051528;28;20097;-75
2023/08/22 00:46:56;;;;;;;5.13;1.83;;;21.00;50.60;;;;;;5052389;28;20029;-76
2023/08/22 00:49:23;;;;;;;8.32;1.40;;;21.10;50.60;;;;;;5053584;28;20507;-78
2023/08/22 00:51:52;;;;;;;5.40;1.38;;;21.20;50.30;;;;;;5053342;28;20025;-80
2023/08/22 00:54:21;;;;;;;5.45;1.35;;;21.30;50.00;;;;;;5052845;28;20082;-76
2023/08/22 00:56:49;;;;;;;3.20;0.95;;;21.50;49.70;;;;;;5053506;28;20017;-75
2023/08/22 00:59:17;;;;;;;3.15;1.40;;;21.70;50.00;;;;;;5053479;28;20075;-77
2023/08/22 01:01:45;;;;;;;1.60;1.13;;;21.80;48.80;;;;;;5053391;28;20506;-78
2023/08/22 01:04:12;;;;;;;2.28;1.20;;;22.10;48.90;;;;;;5053242;28;20028;-78
2023/08/22 01:07:07;;;;;;;2.17;0.90;;;22.30;48.70;;;;;;5054264;28;20029;-79
2023/08/22 01:09:46;;;;;;;2.65;1.55;;;22.60;47.10;;;;;;5056832;28;20072;-78
2023/08/22 01:12:42;;;;;;;5.63;1.98;;;22.80;46.90;;;;;;5057534;28;20017;-77
2023/08/22 01:15:24;;;;;;;5.65;2.17;;;23.10;47.10;;;;;;5057143;28;20411;-77
2023/08/22 01:17:56;;;;;;;4.55;1.50;;;23.20;45.70;;;;;;5058283;28;20032;-81
2023/08/22 01:20:28;;;;;;;5.25;2.30;;;23.40;46.20;;;;;;5059962;28;20044;-79
2023/08/22 01:22:56;;;;;;;5.95;2.42;;;23.50;46.80;;;;;;5056927;28;20056;-77
2023/08/22 01:25:25;;;;;;;4.88;2.00;;;23.70;45.90;;;;;;5056059;28;20024;-81
2023/08/22 01:28:24;;;;;;;8.02;3.13;;;23.80;45.60;;;;;;5055669;28;20029;-77
2023/08/22 01:31:14;;;;;;;3.63;2.00;;;23.90;46.60;;;;;;5054256;28;20527;-76
2023/08/22 01:33:50;;;;;;;3.42;1.20;;;23.90;47.10;;;;;;5055937;28;20013;-77
2023/08/22 01:36:21;;;;;;;5.10;1.50;;;23.90;47.60;;;;;;5056198;28;20028;-77
2023/08/22 01:38:50;;;;;;;5.97;1.80;;;23.90;47.00;;;;;;5054640;28;20470;-78
2023/08/22 01:41:20;;;;;;;4.72;1.80;;;23.90;47.80;;;;;;5054387;28;20096;-77
2023/08/22 01:43:49;;;;;;;7.45;1.55;;;23.80;48.20;;;;;;5053802;28;20025;-77
2023/08/22 01:46:17;;;;;;;2.35;1.35;;;23.70;48.00;;;;;;5054464;28;20416;-77
2023/08/22 01:48:44;;;;;;;2.80;1.30;;;23.70;48.40;;;;;;5053997;28;20507;-81
2023/08/22 01:51:13;;;;;;;5.22;1.30;;;23.70;48.40;;;;;;5053722;28;20111;-77
2023/08/22 01:53:40;;;;;;;3.85;1.35;;;23.70;48.90;;;;;;5053813;28;20013;-77
2023/08/22 01:56:07;;;;;;;4.10;1.45;;;23.80;48.70;;;;;;5053474;28;20498;-80
2023/08/22 01:58:35;;;;;;;4.78;1.40;;;23.80;48.70;;;;;;5053549;28;20083;-77
2023/08/22 02:01:12;;;;;;;7.53;1.50;;;23.80;48.90;;;;;;5053737;28;20036;-78
2023/08/22 02:03:45;;;;;;;3.35;1.20;;;23.80;48.90;;;;;;5052089;28;20426;-77
2023/08/22 02:06:13;;;;;;;3.50;1.35;;;23.90;48.40;;;;;;5053796;28;20025;-86
2023/08/22 02:08:40;;;;;;;2.95;1.60;;;23.90;46.50;;;;;;5052902;28;20032;-77
2023/08/22 02:11:08;;;;;;;2.25;1.30;;;24.00;46.30;;;;;;5053100;28;20028;-77
2023/08/22 02:13:36;;;;;;;6.53;2.00;;;23.90;46.40;;;;;;5068231;28;20029;-78
2023/08/22 02:16:04;;;;;;;4.57;1.50;;;23.90;47.10;;;;;;5053245;28;20033;-77
2023/08/22 02:18:32;;;;;;;4.00;1.60;;;23.90;47.80;;;;;;5052805;28;20025;-79
2023/08/22 02:20:59;;;;;;;4.53;1.40;;;23.90;48.10;;;;;;5052642;28;20033;-77
2023/08/22 02:23:27;;;;;;;2.92;1.45;;;24.00;48.30;;;;;;5052303;28;20028;-77
2023/08/22 02:25:55;;;;;;;5.78;1.60;;;24.00;48.50;;;;;;5051342;28;20029;-78
2023/08/22 02:28:22;;;;;;;4.15;1.70;;;24.00;48.60;;;;;;5052145;28;20049;-78
2023/08/22 02:30:55;;;;;;;7.43;1.55;;;24.10;48.80;;;;;;5052404;28;20025;-76
2023/08/22 02:33:23;;;;;;;2.72;1.50;;;24.30;45.90;;;;;;5052622;28;20478;-76
2023/08/22 02:35:51;;;;;;;9.93;1.95;;;24.30;46.70;;;;;;5052375;28;20025;-77
2023/08/22 02:38:19;;;;;;;4.90;1.75;;;24.30;45.90;;;;;;5051964;28;20491;-76
2023/08/22 02:40:46;;;;;;;3.35;1.77;;;24.40;46.00;;;;;;5052365;28;20033;-77
2023/08/22 02:43:14;;;;;;;6.80;1.63;;;24.50;45.90;;;;;;5052208;28;20098;-77
2023/08/22 02:45:42;;;;;;;7.65;1.60;;;24.50;44.90;;;;;;5052259;28;20023;-77
2023/08/22 02:48:10;;;;;;;1.90;1.30;;;24.70;44.30;;;;;;5051969;28;20021;-77
2023/08/22 02:50:37;;;;;;;2.85;1.20;;;24.70;43.30;;;;;;5052041;28;20107;-77
2023/08/22 02:53:05;;;;;;;2.08;1.00;;;24.70;41.30;;;;;;5055438;28;20021;-77
2023/08/22 02:55:32;;;;;;;4.30;1.05;;;24.80;38.80;;;;;;5055917;28;20021;-76
2023/08/22 02:57:59;;;;;;;1.60;1.23;;;24.80;39.70;;;;;;5055748;28;20475;-76
2023/08/22 03:00:27;;;;;;;2.38;1.00;;;24.90;39.50;;;;;;5055301;28;20036;-76
2023/08/22 03:02:54;;;;;;;0.80;0.80;;;24.90;37.30;;;;;;5055809;28;20029;-78
2023/08/22 03:05:22;;;;;;;1.52;1.00;;;24.90;33.30;;;;;;5055639;28;20391;-77
2023/08/22 03:07:49;;;;;;;2.25;0.80;;;25.00;34.70;;;;;;5055586;28;20356;-77
2023/08/22 03:10:17;;;;;;;0.85;0.85;;;25.00;36.00;;;;;;5055556;28;20021;-78
2023/08/22 03:12:44;;;;;;;2.65;1.00;;;24.90;36.50;;;;;;5055510;28;20056;-78
2023/08/22 03:15:11;;;;;;;4.53;1.20;;;24.90;39.10;;;;;;5055433;28;20100;-78
2023/08/22 03:17:39;;;;;;;2.17;1.10;;;24.90;40.90;;;;;;5055272;28;20379;-79
2023/08/22 03:20:08;;;;;;;4.28;1.48;;;24.90;41.70;;;;;;5055165;28;20187;-78
2023/08/22 03:22:35;;;;;;;3.13;1.30;;;24.90;42.50;;;;;;5055213;28;20029;-77
2023/08/22 03:25:02;;;;;;;4.05;1.20;;;24.80;42.80;;;;;;5055240;28;20108;-77
2023/08/22 03:27:30;;;;;;;2.33;1.00;;;24.80;42.90;;;;;;5055360;28;20040;-78
2023/08/22 03:29:58;;;;;;;1.83;1.30;;;24.80;43.40;;;;;;5055480;28;20063;-77
2023/08/22 03:32:25;;;;;;;4.68;1.80;;;24.70;44.00;;;;;;5055069;28;20025;-78
2023/08/22 03:34:52;;;;;;;5.60;1.55;;;24.60;44.10;;;;;;5055446;28;20498;-77
2023/08/22 03:37:20;;;;;;;4.10;1.70;;;24.40;44.30;;;;;;5055208;28;20102;-79
2023/08/22 03:39:47;;;;;;;4.18;1.33;;;24.40;45.00;;;;;;5054912;28;20021;-77
2023/08/22 03:42:15;;;;;;;8.18;1.40;;;24.30;45.30;;;;;;5054685;28;20467;-78
2023/08/22 03:44:42;;;;;;;1.63;1.30;;;24.30;45.80;;;;;;5054794;28;20025;-76
2023/08/22 03:47:10;;;;;;;3.70;1.40;;;24.30;46.30;;;;;;5054932;28;20099;-78
2023/08/22 03:49:37;;;;;;;3.90;1.30;;;24.20;46.10;;;;;;5054701;28;20029;-78
2023/08/22 03:52:05;;;;;;;3.90;1.25;;;24.10;46.10;;;;;;5054803;28;20025;-78
2023/08/22 03:54:32;;;;;;;3.17;1.33;;;24.00;45.80;;;;;;5054521;28;20104;-77
2023/08/22 03:56:59;;;;;;;2.90;1.08;;;24.00;46.20;;;;;;5054910;28;20497;-78
2023/08/22 03:59:27;;;;;;;4.30;1.52;;;24.00;46.20;;;;;;5054665;28;20032;-78
2023/08/22 04:01:54;;;;;;;3.67;1.30;;;23.90;46.30;;;;;;5054312;28;20043;-78
2023/08/22 04:04:21;;;;;;;3.05;1.10;;;23.80;46.10;;;;;;5053584;28;20474;-78
2023/08/22 04:06:49;;;;;;;5.80;1.10;;;23.80;46.30;;;;;;5054660;28;20550;-78
2023/08/22 04:09:16;;;;;;;5.03;1.17;;;23.80;46.50;;;;;;5054396;28;20463;-81
2023/08/22 04:11:44;;;;;;;4.53;1.30;;;23.70;46.60;;;;;;5054414;28;20033;-77
2023/08/22 04:14:11;;;;;;;2.83;1.10;;;23.70;46.50;;;;;;5054379;28;20082;-77
2023/08/22 04:16:39;;;;;;;3.47;1.40;;;23.60;46.70;;;;;;5054024;28;20029;-77
2023/08/22 04:19:06;;;;;;;4.30;1.35;;;23.60;47.40;;;;;;5054082;28;20037;-76
2023/08/22 04:21:33;;;;;;;2.17;1.15;;;23.50;47.50;;;;;;5054115;28;20037;-78
2023/08/22 04:24:01;;;;;;;2.35;1.10;;;23.50;47.40;;;;;;5054198;28;20559;-81
2023/08/22 04:26:28;;;;;;;4.65;1.38;;;23.50;47.60;;;;;;5054665;28;20406;-76
2023/08/22 04:28:55;;;;;;;4.88;1.50;;;23.40;47.90;;;;;;5054228;28;20510;-76
2023/08/22 04:31:23;;;;;;;5.55;1.25;;;23.30;48.10;;;;;;5054170;28;20083;-77
2023/08/22 04:33:50;;;;;;;2.17;1.10;;;23.30;48.40;;;;;;5053999;28;20017;-76
2023/08/22 04:36:17;;;;;;;3.22;1.50;;;23.30;48.70;;;;;;5053742;28;20036;-76
2023/08/22 04:38:49;;;;;;;5.13;1.30;;;23.20;48.90;;;;;;5053735;28;20032;-77
2023/08/22 04:41:16;;;;;;;3.53;1.48;;;23.20;48.90;;;;;;5053775;28;20025;-81
2023/08/22 04:43:44;;;;;;;6.72;1.40;;;23.20;48.90;;;;;;5053689;28;20029;-77
2023/08/22 04:46:12;;;;;;;5.65;1.30;;;23.10;49.10;;;;;;5053754;28;20013;-76
2023/08/22 04:48:40;;;;;;;4.43;1.52;;;23.10;49.20;;;;;;5053549;28;20465;-80
2023/08/22 04:51:07;;;;;;;4.97;1.30;;;23.20;49.30;;;;;;5053702;28;20029;-82
2023/08/22 04:53:34;;;;;;;4.13;1.27;;;23.20;49.50;;;;;;5053461;28;20016;-78
2023/08/22 04:56:02;;;;;;;3.40;1.25;;;23.20;49.70;;;;;;5053498;28;20029;-78
2023/08/22 04:58:29;;;;;;;6.18;1.60;;;23.20;49.70;;;;;;5053388;28;20025;-77
2023/08/22 05:00:57;;;;;;;2.60;1.13;;;23.20;49.60;;;;;;5053783;28;20040;-78
2023/08/22 05:03:24;;;;;;;2.33;1.25;;;23.20;49.50;;;;;;5053469;28;20033;-77
2023/08/22 05:05:52;;;;;;;3.47;1.50;;;23.20;49.50;;;;;;5053155;28;20025;-78
2023/08/22 05:08:19;;;;;;;3.28;1.30;;;23.20;49.40;;;;;;5053310;28;20032;-77
2023/08/22 05:10:46;;;;;;;4.28;1.50;;;23.30;49.40;;;;;;5053243;28;20475;-79
2023/08/22 05:13:14;;;;;;;5.65;1.45;;;23.30;49.30;;;;;;5053246;28;20555;-77
2023/08/22 05:15:43;;;;;;;4.70;1.50;;;23.30;49.00;;;;;;5053109;28;20095;-77
2023/08/22 05:18:11;;;;;;;2.65;1.20;;;23.30;49.20;;;;;;5053126;28;20025;-77
2023/08/22 05:20:41;;;;;;;4.20;1.38;;;23.20;49.40;;;;;;5052768;28;20051;-76
2023/08/22 05:23:08;;;;;;;3.40;1.42;;;23.20;49.50;;;;;;5052811;28;20033;-85
2023/08/22 05:25:35;;;;;;;3.28;1.30;;;23.10;49.60;;;;;;5053222;28;20100;-77
2023/08/22 05:28:04;;;;;;;5.38;1.67;;;23.00;49.90;;;;;;5053070;28;20021;-79
2023/08/22 05:30:31;;;;;;;4.25;1.50;;;22.90;50.10;;;;;;5052739;28;20511;-78
2023/08/22 05:32:59;;;;;;;3.80;1.25;;;22.90;50.20;;;;;;5052876;28;20025;-77
2023/08/22 05:35:26;;;;;;;4.38;1.40;;;22.80;50.30;;;;;;5052902;28;20044;-79
2023/08/22 05:37:53;;;;;;;6.45;1.50;;;22.80;50.40;;;;;;5052978;28;20029;-78
2023/08/22 05:40:22;;;;;;;4.47;1.35;;;22.70;50.20;;;;;;5052754;28;20036;-77
2023/08/22 05:42:52;;;;;;;5.15;1.42;;;22.60;50.20;;;;;;5054248;28;20103;-77
2023/08/22 05:45:19;;;;;;;2.97;1.25;;;22.60;50.30;;;;;;5054096;28;20078;-77
2023/08/22 05:47:47;;;;;;;4.43;1.90;;;22.50;50.20;;;;;;5052845;28;20040;-77
2023/08/22 05:50:14;;;;;;;3.05;1.23;;;22.50;49.90;;;;;;5052692;28;20092;-79
2023/08/22 05:52:41;;;;;;;3.10;1.45;;;22.40;49.80;;;;;;5052611;28;20040;-83
2023/08/22 05:55:09;;;;;;;2.63;1.30;;;22.30;49.60;;;;;;5052724;28;20025;-77
2023/08/22 05:57:37;;;;;;;9.05;1.25;;;22.40;49.20;;;;;;5052662;28;20052;-75
2023/08/22 06:00:04;;;;;;;4.40;1.50;;;22.30;49.10;;;;;;5052539;28;20025;-79
2023/08/22 06:02:32;;;;;;;4.43;1.42;;;22.30;48.90;;;;;;5052178;28;20033;-78
2023/08/22 06:04:59;;;;;;;2.35;1.17;;;22.20;48.50;;;;;;5052620;28;20088;-78
2023/08/22 06:07:27;;;;;;;3.50;1.58;;;22.20;48.00;;;;;;5052505;28;20025;-77
2023/08/22 06:09:54;;;;;;;2.80;1.00;;;22.10;47.80;;;;;;5052670;28;20044;-78
2023/08/22 06:12:21;;;;;;;3.92;1.30;;;22.10;47.90;;;;;;5052595;28;20021;-77
2023/08/22 06:14:49;;;;;;;4.10;1.42;;;22.00;47.10;;;;;;5052686;28;20476;-78
2023/08/22 06:17:16;;;;;;;7.53;1.30;;;22.00;46.80;;;;;;5052358;28;20032;-77
2023/08/22 06:19:43;;;;;;;4.72;1.48;;;22.00;46.80;;;;;;5052180;28;20053;-79
2023/08/22 06:22:11;;;;;;;2.22;1.20;;;21.90;47.10;;;;;;5052318;28;20033;-78
2023/08/22 06:24:38;;;;;;;3.05;1.20;;;21.90;47.40;;;;;;5052406;28;20025;-77
2023/08/22 06:27:06;;;;;;;3.63;1.45;;;21.80;47.60;;;;;;5055322;28;20035;-77
2023/08/22 06:29:33;;;;;;;3.65;1.30;;;21.80;47.70;;;;;;5056450;28;20396;-78
2023/08/22 06:32:01;;;;;;;4.03;1.70;;;21.80;47.70;;;;;;5056483;28;20087;-77
2023/08/22 06:34:31;;;;;;;5.13;1.40;;;21.70;47.10;;;;;;5056183;28;20079;-81
2023/08/22 06:36:58;;;;;;;2.38;1.40;;;21.70;47.30;;;;;;5056199;28;20094;-81
2023/08/22 06:39:27;;;;;;;6.10;1.40;;;21.70;46.90;;;;;;5056390;28;20021;-86
2023/08/22 06:41:54;;;;;;;3.55;1.30;;;21.70;46.60;;;;;;5056095;28;20037;-79
2023/08/22 06:44:22;;;;;;;2.20;1.17;;;21.60;46.90;;;;;;5055902;28;20029;-82
2023/08/22 06:46:49;;;;;;;3.47;1.30;;;21.60;46.50;;;;;;5056176;28;20519;-81
2023/08/22 06:49:16;;;;;;;4.30;1.40;;;21.60;46.10;;;;;;5056277;28;20028;-81
2023/08/22 06:51:44;;;;;;;1.85;1.30;;;21.50;46.30;;;;;;5055843;28;20112;-79
2023/08/22 06:54:11;;;;;;;4.25;1.45;;;21.50;46.10;;;;;;5056405;28;20456;-77
2023/08/22 06:56:38;;;;;;;5.22;1.48;;;21.50;46.20;;;;;;5055680;28;20052;-77
2023/08/22 06:59:06;;;;;;;3.92;1.40;;;21.50;46.70;;;;;;5056268;28;20032;-78
2023/08/22 07:01:33;;;;;;;4.43;1.60;;;21.50;46.80;;;;;;5055895;28;20064;-77
2023/08/22 07:04:01;;;;;;;5.57;1.63;;;21.40;46.90;;;;;;5055814;28;20018;-77
2023/08/22 07:06:28;;;;;;;5.45;1.75;;;21.40;46.90;;;;;;5055163;28;20108;-76
2023/08/22 07:08:55;;;;;;;4.05;1.48;;;21.30;47.10;;;;;;5055611;28;20586;-81
2023/08/22 07:11:23;;;;;;;3.03;1.38;;;21.30;47.30;;;;;;5055695;28;20033;-77
2023/08/22 07:13:50;;;;;;;3.70;1.30;;;21.30;47.70;;;;;;5055894;28;20112;-77
2023/08/22 07:16:18;;;;;;;2.53;1.20;;;21.30;48.10;;;;;;5055212;28;20029;-77
2023/08/22 07:18:45;;;;;;;4.00;1.40;;;21.30;48.50;;;;;;5055474;28;20017;-77
2023/08/22 07:21:13;;;;;;;2.95;1.55;;;21.20;48.80;;;;;;5055529;28;20033;-77
2023/08/22 07:23:40;;;;;;;4.18;1.60;;;21.20;49.10;;;;;;5055454;28;20021;-79
2023/08/22 07:26:08;;;;;;;3.97;1.33;;;21.20;49.00;;;;;;5055490;28;20103;-78
2023/08/22 07:28:35;;;;;;;3.30;1.35;;;21.10;49.30;;;;;;5055245;28;20471;-77
2023/08/22 07:31:07;;;;;;;8.23;1.38;;;21.10;49.40;;;;;;5055327;28;20049;-79
2023/08/22 07:33:34;;;;;;;3.33;1.38;;;21.10;49.80;;;;;;5055131;28;20612;-78
2023/08/22 07:36:03;;;;;;;3.28;1.60;;;21.10;50.10;;;;;;5055237;28;20470;-79
2023/08/22 07:38:30;;;;;;;3.03;1.55;;;21.00;50.30;;;;;;5054938;28;20048;-82
2023/08/22 07:40:57;;;;;;;2.38;1.58;;;21.00;50.80;;;;;;5055168;28;20122;-77
2023/08/22 07:43:25;;;;;;;3.55;1.70;;;20.90;51.20;;;;;;5055082;28;20021;-77
2023/08/22 07:45:52;;;;;;;4.65;2.15;;;20.90;51.30;;;;;;5054933;28;20357;-79
2023/08/22 07:48:19;;;;;;;4.38;2.00;;;20.90;51.50;;;;;;5054725;28;20045;-80
2023/08/22 07:50:47;;;;;;;4.20;1.90;;;20.80;52.10;;;;;;5054737;28;20420;-76
2023/08/22 07:53:14;;;;;;;4.97;1.92;;;20.80;52.30;;;;;;5054522;28;20029;-77
2023/08/22 07:55:41;;;;;;;2.47;1.48;;;20.80;52.90;;;;;;5054631;28;20025;-78
2023/08/22 07:58:09;;;;;;;7.40;2.00;;;20.70;53.60;;;;;;5054525;28;20506;-78
2023/08/22 08:00:37;;;;;;;3.35;1.80;;;20.70;53.80;;;;;;5054313;28;20107;-76
2023/08/22 08:03:05;;;;;;;4.75;1.75;;;20.60;54.80;;;;;;5054605;28;20033;-79
2023/08/22 08:05:33;;;;;;;4.13;1.60;;;20.50;55.10;;;;;;5054485;28;20374;-77
2023/08/22 08:08:01;;;;;;;4.03;1.75;;;20.50;55.40;;;;;;5054392;28;20025;-86
2023/08/22 08:10:28;;;;;;;6.57;1.70;;;20.50;55.80;;;;;;5054158;28;20070;-78
2023/08/22 08:12:55;;;;;;;5.57;1.85;;;20.40;56.30;;;;;;5054464;28;20448;-78
2023/08/22 08:15:23;;;;;;;8.02;1.75;;;20.40;56.70;;;;;;5054376;28;20067;-77
2023/08/22 08:17:50;;;;;;;2.55;1.35;;;20.40;56.90;;;;;;5054543;28;20113;-76
2023/08/22 08:20:18;;;;;;;3.90;1.90;;;20.30;57.20;;;;;;5053978;28;20044;-77
2023/08/22 08:22:45;;;;;;;8.00;2.28;;;20.30;57.60;;;;;;5054103;28;20093;-77
2023/08/22 08:25:12;;;;;;;2.17;1.58;;;20.30;57.90;;;;;;5054098;28;20107;-76
2023/08/22 08:27:40;;;;;;;4.20;1.65;;;20.30;58.20;;;;;;5054170;28;20478;-76
2023/08/22 08:30:10;;;;;;;5.57;1.73;;;20.20;58.10;;;;;;5054096;28;20040;-80
2023/08/22 08:32:37;;;;;;;5.68;1.73;;;20.20;58.10;;;;;;5053896;28;20021;-78
2023/08/22 08:35:05;;;;;;;4.88;1.80;;;20.10;58.10;;;;;;5054014;28;20065;-83
2023/08/22 08:37:33;;;;;;;3.92;2.08;;;20.10;58.00;;;;;;5053737;28;20021;-78
2023/08/22 08:40:00;;;;;;;3.45;1.90;;;20.00;58.00;;;;;;5053703;28;20029;-77
2023/08/22 08:42:28;;;;;;;6.05;2.35;;;20.00;58.10;;;;;;5053572;28;20033;-77
2023/08/22 08:44:57;;;;;;;5.82;2.45;;;20.00;58.20;;;;;;5053994;28;20029;-78
2023/08/22 08:47:25;;;;;;;7.00;2.40;;;19.90;58.30;;;;;;5054006;28;20017;-78
2023/08/22 08:49:54;;;;;;;6.97;2.97;;;19.90;58.40;;;;;;5053353;28;20487;-78
2023/08/22 08:52:22;;;;;;;5.22;2.60;;;19.90;58.60;;;;;;5053344;28;20103;-77
2023/08/22 08:54:50;;;;;;;6.20;2.40;;;19.90;58.80;;;;;;5053630;28;20025;-78
2023/08/22 08:57:17;;;;;;;4.13;2.58;;;19.80;59.10;;;;;;5053576;28;20479;-78
2023/08/22 08:59:44;;;;;;;6.85;3.20;;;19.80;59.40;;;;;;5053548;28;20025;-78
2023/08/22 09:02:16;;;;;;;6.63;3.60;;;19.70;59.50;;;;;;5053476;28;20072;-77
2023/08/22 09:04:43;;;;;;;5.43;3.08;;;19.70;59.60;;;;;;5053573;28;20047;-77
2023/08/22 09:07:11;;;;;;;7.45;3.03;;;19.70;59.70;;;;;;5053156;28;20021;-78
2023/08/22 09:09:38;;;;;;;6.88;2.30;;;19.60;59.80;;;;;;5053477;28;20124;-77
2023/08/22 09:12:09;;;;;;;6.72;2.47;;;19.60;59.90;;;;;;5053350;28;20371;-77
2023/08/22 09:14:46;;;;;;;6.28;2.38;;;19.50;59.90;;;;;;5053041;28;20477;-78
2023/08/22 09:17:17;;;;;;;4.32;2.40;;;19.50;59.90;;;;;;5051978;28;20025;-77
2023/08/22 09:19:46;;;;;;;7.85;2.78;;;19.50;59.80;;;;;;5052924;28;20045;-79
2023/08/22 09:22:15;;;;;;;5.00;2.40;;;19.50;59.60;;;;;;5052979;28;20093;-77
2023/08/22 09:24:53;;;;;;;8.80;3.00;;;19.40;59.30;;;;;;5053038;28;20029;-77
2023/08/22 09:27:29;;;;;;;4.90;3.20;;;19.40;58.80;;;;;;5053116;28;20021;-76
2023/08/22 09:30:05;;;;;;;5.85;2.97;;;19.40;58.80;;;;;;5052849;28;20023;-79
2023/08/22 09:32:32;;;;;;;;;;;19.50;59.20;;;;;;5053059;28;20048;-77
2023/08/22 09:35:02;;;;;;;7.03;2.53;;;19.40;58.90;;;;;;5052915;28;20355;-77
2023/08/22 09:37:40;;;;;;;3.42;1.90;;;19.50;59.40;;;;;;5052670;28;20112;-78
2023/08/22 09:40:13;;;;;;;2.53;1.70;;;19.50;58.70;;;;;;5052643;28;20025;-78
2023/08/22 09:42:41;;;;;;;4.95;2.03;;;19.50;58.00;;;;;;5052458;28;20048;-81
2023/08/22 09:45:10;;;;;;;3.65;1.90;;;19.40;57.50;;;;;;5052771;28;20021;-77
2023/08/22 09:47:44;;;;;;;4.40;1.88;;;19.50;55.80;;;;;;5053054;28;20025;-77
2023/08/22 09:50:16;;;;;;;3.15;1.95;;;19.50;55.60;;;;;;5052751;28;20082;-77
2023/08/22 09:52:44;;;;;;;3.53;2.10;;;19.50;54.30;;;;;;5052532;28;20059;-77
2023/08/22 09:55:12;;;;;;;3.30;2.10;;;19.60;53.80;;;;;;5052910;28;20422;-77
2023/08/22 09:57:40;;;;;;;4.90;2.15;;;19.50;53.80;;;;;;5052624;28;20025;-79
2023/08/22 10:00:10;;;;;;;3.22;1.73;;;19.60;54.00;;;;;;5052048;28;20029;-77
2023/08/22 10:02:39;;;;;;;3.05;1.65;;;19.60;54.30;;;;;;5052098;28;20043;-77
2023/08/22 10:05:07;;;;;;;2.42;1.40;;;19.60;52.50;;;;;;5052551;28;20066;-76
2023/08/22 10:07:35;;;;;;;2.22;1.60;;;19.60;51.50;;;;;;5067627;28;20029;-77
2023/08/22 10:10:05;;;;;;;3.95;1.58;;;19.70;51.00;;;;;;5052560;28;20013;-76
2023/08/22 10:12:33;;;;;;;2.95;1.50;;;19.70;51.20;;;;;;5053040;28;20148;-77
2023/08/22 10:15:06;;;;;;;3.35;1.70;;;19.70;51.50;;;;;;5052522;28;20380;-76
2023/08/22 10:17:34;;;;;;;5.03;1.70;;;19.70;50.80;;;;;;5052411;28;20025;-77
2023/08/22 10:20:05;;;;;;;4.03;2.13;;;19.70;51.20;;;;;;5052246;28;20138;-79
2023/08/22 10:22:33;;;;;;;1.80;1.30;;;19.70;51.60;;;;;;5052060;28;20047;-77
2023/08/22 10:25:05;;;;;;;4.30;1.98;;;19.70;52.00;;;;;;5052525;28;20021;-77
2023/08/22 10:27:33;;;;;;;2.80;1.88;;;19.60;52.50;;;;;;5052590;28;20119;-77
2023/08/22 10:30:29;;;;;;;4.85;1.85;;;19.60;52.40;;;;;;5052469;28;20447;-78
2023/08/22 10:33:07;;;;;;;3.70;2.10;;;19.60;52.50;;;;;;5051719;28;20411;-77
2023/08/22 10:35:34;;;;;;;2.22;1.45;;;19.60;52.90;;;;;;5052332;28;20044;-76
2023/08/22 10:38:02;;;;;;;3.60;1.88;;;19.60;52.30;;;;;;5052434;28;20471;-76
2023/08/22 10:40:33;;;;;;;4.80;1.60;;;19.60;52.10;;;;;;5052111;28;20033;-77
2023/08/22 10:43:12;;;;;;;3.90;2.00;;;19.60;52.30;;;;;;5052392;28;20029;-77
2023/08/22 10:45:41;;;;;;;3.58;1.65;;;19.60;52.20;;;;;;5052158;28;20017;-77
2023/08/22 10:48:12;;;;;;;3.95;1.42;;;19.60;52.30;;;;;;5052263;28;20053;-77
2023/08/22 10:50:46;;;;;;;4.18;1.77;;;19.60;52.40;;;;;;5051764;28;20022;-76
2023/08/22 10:53:26;;;;;;;3.25;1.80;;;19.50;51.90;;;;;;5052025;28;20056;-77
2023/08/22 10:55:56;;;;;;;2.30;1.55;;;19.50;51.70;;;;;;5052112;28;20025;-80
2023/08/22 10:58:38;;;;;;;3.25;1.50;;;19.50;51.70;;;;;;5052012;28;20025;-79
2023/08/22 11:01:16;;;;;;;4.60;1.33;;;19.50;51.50;;;;;;5052079;28;20116;-77
2023/08/22 11:03:47;;;;;;;2.38;1.63;;;19.50;51.40;;;;;;5052199;28;20092;-77
2023/08/22 11:06:18;;;;;;;3.95;1.80;;;19.50;51.30;;;;;;5051964;28;20387;-80
2023/08/22 11:08:47;;;;;;;2.80;1.58;;;19.40;51.20;;;;;;5052143;28;20029;-77
2023/08/22 11:11:20;;;;;;;3.58;1.63;;;19.40;51.30;;;;;;5052027;28;20025;-77
2023/08/22 11:13:48;;;;;;;5.68;1.70;;;19.50;51.70;;;;;;5055570;28;20040;-76
2023/08/22 11:16:18;;;;;;;4.53;1.95;;;19.40;51.70;;;;;;5056641;28;20032;-76
2023/08/22 11:18:48;;;;;;;2.15;1.48;;;19.40;51.80;;;;;;5055984;28;20021;-77
2023/08/22 11:21:16;;;;;;;4.40;2.53;;;19.30;52.10;;;;;;5056647;28;20039;-76
2023/08/22 11:23:44;;;;;;;4.35;1.80;;;19.30;52.70;;;;;;5056588;28;20438;-76
2023/08/22 11:26:12;;;;;;;4.53;1.92;;;19.30;52.70;;;;;;5057151;28;20079;-76
2023/08/22 11:28:40;;;;;;;3.28;1.65;;;19.30;53.10;;;;;;5057489;28;20067;-75
2023/08/22 11:31:16;;;;;;;5.75;2.30;;;19.20;53.80;;;;;;5056583;28;20108;-79
2023/08/22 11:33:49;;;;;;;3.83;2.15;;;19.20;54.30;;;;;;5055518;28;20079;-77
2023/08/22 11:36:18;;;;;;;5.45;3.10;;;19.20;54.50;;;;;;5055010;28;20060;-77
2023/08/22 11:38:47;;;;;;;3.22;1.70;;;19.20;55.20;;;;;;5055127;28;20053;-77
2023/08/22 11:41:14;;;;;;;5.82;2.22;;;19.20;55.20;;;;;;5055021;28;20134;-75
2023/08/22 11:43:52;;;;;;;4.57;2.25;;;19.20;54.90;;;;;;5054985;28;20021;-77
2023/08/22 11:46:21;;;;;;;3.55;1.75;;;19.10;54.70;;;;;;5055282;28;20033;-76
2023/08/22 11:48:51;;;;;;;4.78;1.80;;;19.10;54.80;;;;;;5055994;28;20017;-76
2023/08/22 11:51:20;;;;;;;3.28;1.80;;;19.10;54.70;;;;;;5056024;28;20444;-76
2023/08/22 11:53:48;;;;;;;4.07;1.70;;;19.10;54.30;;;;;;5054128;28;20403;-77
2023/08/22 11:56:16;;;;;;;3.90;1.92;;;19.10;54.20;;;;;;5055102;28;20029;-77
2023/08/22 11:58:53;;;;;;;5.05;1.77;;;19.10;55.20;;;;;;5055077;28;20032;-76
2023/08/22 12:01:24;;;;;;;3.97;1.60;;;19.10;56.40;;;;;;5055310;28;20097;-78
2023/08/22 12:03:56;;;;;;;3.10;1.55;;;19.10;56.50;;;;;;5055102;28;20476;-77
2023/08/22 12:06:24;;;;;;;6.75;1.83;;;19.00;56.50;;;;;;5057200;28;20032;-81
2023/08/22 12:09:00;;;;;;;3.40;1.55;;;19.00;56.90;;;;;;5062422;28;20066;-77
2023/08/22 12:11:28;;;;;;;3.15;1.50;;;19.00;57.00;;;;;;5054325;28;20024;-78
2023/08/22 12:13:56;;;;;;;3.30;2.60;;;18.90;57.10;;;;;;5054371;28;20029;-76
2023/08/22 12:16:23;;;;;;;3.50;1.70;;;18.90;57.60;;;;;;5054669;28;20076;-77
2023/08/22 12:18:51;;;;;;;3.00;2.35;;;19.00;57.80;;;;;;5053467;28;20499;-80
2023/08/22 12:21:18;;;;;;;7.07;2.60;;;19.00;58.40;;;;;;5053500;28;20055;-80
2023/08/22 12:23:46;;;;;;;3.67;1.80;;;19.00;58.30;;;;;;5050606;28;20028;-77
2023/08/22 12:26:13;;;;;;;2.88;1.80;;;19.00;57.80;;;;;;5053997;28;20029;-90
2023/08/22 12:28:40;;;;;;;3.70;1.90;;;18.90;58.20;;;;;;5053782;28;20511;-83
2023/08/22 12:31:08;;;;;;;3.88;1.55;;;18.90;60.40;;;;;;5053858;28;20025;-84
2023/08/22 12:33:35;;;;;;;1.58;1.00;;;18.80;60.40;;;;;;5053772;28;20025;-89
2023/08/22 12:36:03;;;;;;;5.85;1.80;;;18.80;61.50;;;;;;5053287;28;20028;-77
2023/08/22 12:38:30;;;;;;;3.90;1.95;;;18.60;62.60;;;;;;5053157;28;20056;-81
2023/08/22 12:40:59;;;;;;;6.80;2.65;;;18.40;64.20;;;;;;5053283;28;20033;-77
2023/08/22 12:43:27;;;;;;;9.52;2.33;;;18.40;65.70;;;;;;5052135;28;20051;-77
2023/08/22 12:45:54;;;;;;;8.38;1.42;;;18.20;66.60;;;;;;5053261;28;20021;-77
2023/08/22 12:48:22;;;;;;;4.53;1.52;;;18.10;67.40;;;;;;5052922;28;20036;-76
2023/08/22 12:50:49;;;;;;;8.10;1.50;;;18.00;68.00;;;;;;5053180;28;20025;-76
2023/08/22 12:53:16;;;;;;;5.55;1.60;;;17.90;68.50;;;;;;5053144;28;20024;-76
2023/08/22 12:55:44;;;;;;;6.45;1.80;;;17.90;68.60;;;;;;5047868;28;20277;-76